createdAt,value
2018-03-20T00:00:55.831Z,1016.12
2018-03-20T00:02:05.445Z,1016.17
2018-03-20T00:03:14.681Z,1016.17
2018-03-20T00:04:24.172Z,1016.18
2018-03-20T00:05:33.396Z,1016.15
2018-03-20T00:06:42.620Z,1016.14
2018-03-20T00:07:52.375Z,1016.19
2018-03-20T00:09:01.863Z,1016.2
2018-03-20T00:10:11.081Z,1016.17
2018-03-20T00:11:20.567Z,1016.12
2018-03-20T00:12:30.056Z,1016.17
2018-03-20T00:13:39.275Z,1016.21
2018-03-20T00:14:49.034Z,1016.18
2018-03-20T00:15:58.251Z,1016.14
2018-03-20T00:17:07.741Z,1016.11
2018-03-20T00:18:17.498Z,1016.1
2018-03-20T00:19:27.256Z,1016.1
2018-03-20T00:20:37.284Z,1016.13
2018-03-20T00:21:47.050Z,1016.12
2018-03-20T00:22:56.814Z,1016.17
2018-03-20T00:24:06.303Z,1016.15
2018-03-20T00:25:15.798Z,1016.09
2018-03-20T00:26:25.290Z,1016.11
2018-03-20T00:27:35.311Z,1016.13
2018-03-20T00:28:44.804Z,1016.08
2018-03-20T00:29:54.569Z,1016.05
2018-03-20T00:31:04.336Z,1016.02
2018-03-20T00:32:14.097Z,1016.05
2018-03-20T00:33:23.874Z,1016.11
2018-03-20T00:34:33.630Z,1016
2018-03-20T00:35:43.390Z,1016.05
2018-03-20T00:36:52.888Z,1016.08
2018-03-20T00:38:02.645Z,1016.1
2018-03-20T00:39:12.139Z,1016.1
2018-03-20T00:40:21.898Z,1016.05
2018-03-20T00:41:31.932Z,1016.1
2018-03-20T00:42:41.423Z,1016.04
2018-03-20T00:43:50.376Z,1016.06
2018-03-20T00:44:59.864Z,1016.09
2018-03-20T00:46:09.352Z,1016.12
2018-03-20T00:47:19.116Z,1016.11
2018-03-20T00:48:28.608Z,1016.09
2018-03-20T00:49:38.097Z,1016.07
2018-03-20T00:50:47.583Z,1016.13
2018-03-20T00:51:57.075Z,1016.13
2018-03-20T00:53:06.829Z,1016.08
2018-03-20T00:54:16.318Z,1016.1
2018-03-20T00:55:26.090Z,1016.1
2018-03-20T00:56:35.574Z,1016.1
2018-03-20T00:57:45.065Z,1016.13
2018-03-20T00:58:54.558Z,1016.12
2018-03-20T01:00:03.781Z,1016.13
2018-03-20T01:01:13.539Z,1016.16
2018-03-20T01:02:23.298Z,1016.16
2018-03-20T01:03:32.785Z,1016.14
2018-03-20T01:04:42.276Z,1016.14
2018-03-20T01:05:51.227Z,1016.08
2018-03-20T01:07:00.714Z,1016.08
2018-03-20T01:08:10.565Z,1016.06
2018-03-20T01:09:19.516Z,1016.1
2018-03-20T01:10:29.001Z,1016.08
2018-03-20T01:11:37.963Z,1016.15
2018-03-20T01:12:46.908Z,1016.07
2018-03-20T01:13:56.397Z,1016.1
2018-03-20T01:15:05.886Z,1016.07
2018-03-20T01:16:15.378Z,1016.1
2018-03-20T01:17:25.138Z,1016.07
2018-03-20T01:18:34.478Z,1016.1
2018-03-20T01:19:43.427Z,1016.1
2018-03-20T01:20:52.921Z,1016.06
2018-03-20T01:22:02.142Z,1016.09
2018-03-20T01:23:11.909Z,1016.03
2018-03-20T01:24:21.663Z,1016.06
2018-03-20T01:25:31.153Z,1016.02
2018-03-20T01:26:40.962Z,1016.09
2018-03-20T01:27:50.468Z,1016.09
2018-03-20T01:29:00.227Z,1016.03
2018-03-20T01:30:09.993Z,1016
2018-03-20T01:31:19.483Z,1016.03
2018-03-20T01:32:28.166Z,1015.99
2018-03-20T01:33:37.655Z,1015.95
2018-03-20T01:34:47.410Z,1015.96
2018-03-20T01:35:56.627Z,1015.97
2018-03-20T01:37:06.124Z,1015.99
2018-03-20T01:38:15.333Z,1015.99
2018-03-20T01:39:25.138Z,1015.98
2018-03-20T01:40:34.892Z,1016.01
2018-03-20T01:41:44.387Z,1015.96
2018-03-20T01:42:53.874Z,1016
2018-03-20T01:44:03.107Z,1015.98
2018-03-20T01:45:12.863Z,1015.98
2018-03-20T01:46:22.367Z,1015.98
2018-03-20T01:47:32.389Z,1015.94
2018-03-20T01:48:41.611Z,1015.91
2018-03-20T01:49:51.101Z,1015.89
2018-03-20T01:51:00.325Z,1015.89
2018-03-20T01:52:10.078Z,1015.86
2018-03-20T01:53:20.097Z,1015.85
2018-03-20T01:54:29.051Z,1015.85
2018-03-20T01:55:38.278Z,1015.84
2018-03-20T01:56:47.224Z,1015.82
2018-03-20T01:57:56.442Z,1015.74
2018-03-20T01:59:05.934Z,1015.79
2018-03-20T02:00:15.430Z,1015.8
2018-03-20T02:01:25.194Z,1015.82
2018-03-20T02:02:34.687Z,1015.83
2018-03-20T02:03:44.173Z,1015.83
2018-03-20T02:04:53.671Z,1015.79
2018-03-20T02:06:03.427Z,1015.79
2018-03-20T02:07:12.662Z,1015.78
2018-03-20T02:08:22.156Z,1015.77
2018-03-20T02:09:32.183Z,1015.8
2018-03-20T02:10:41.401Z,1015.77
2018-03-20T02:11:51.156Z,1015.75
2018-03-20T02:13:00.915Z,1015.74
2018-03-20T02:14:10.704Z,1015.74
2018-03-20T02:15:20.322Z,1015.74
2018-03-20T02:16:29.827Z,1015.75
2018-03-20T02:17:39.049Z,1015.71
2018-03-20T02:18:48.536Z,1015.76
2018-03-20T02:19:58.028Z,1015.69
2018-03-20T02:21:07.783Z,1015.71
2018-03-20T02:22:17.294Z,1015.68
2018-03-20T02:23:26.781Z,1015.67
2018-03-20T02:24:36.272Z,1015.69
2018-03-20T02:25:45.763Z,1015.71
2018-03-20T02:26:54.983Z,1015.7
2018-03-20T02:28:04.208Z,1015.65
2018-03-20T02:29:13.428Z,1015.61
2018-03-20T02:30:22.648Z,1015.65
2018-03-20T02:31:31.869Z,1015.62
2018-03-20T02:32:41.393Z,1015.64
2018-03-20T02:33:51.156Z,1015.61
2018-03-20T02:35:00.727Z,1015.6
2018-03-20T02:36:10.223Z,1015.65
2018-03-20T02:37:19.453Z,1015.64
2018-03-20T02:38:29.494Z,1015.68
2018-03-20T02:39:39.264Z,1015.66
2018-03-20T02:40:49.317Z,1015.69
2018-03-20T02:41:58.802Z,1015.67
2018-03-20T02:43:08.029Z,1015.65
2018-03-20T02:44:16.986Z,1015.65
2018-03-20T02:45:26.769Z,1015.67
2018-03-20T02:46:36.545Z,1015.68
2018-03-20T02:47:46.055Z,1015.71
2018-03-20T02:48:55.818Z,1015.7
2018-03-20T02:50:05.046Z,1015.72
2018-03-20T02:51:14.540Z,1015.71
2018-03-20T02:52:24.320Z,1015.69
2018-03-20T02:53:33.815Z,1015.68
2018-03-20T02:54:43.582Z,1015.69
2018-03-20T02:55:53.357Z,1015.72
2018-03-20T02:57:02.852Z,1015.71
2018-03-20T02:58:12.891Z,1015.77
2018-03-20T02:59:22.452Z,1015.74
2018-03-20T03:00:32.495Z,1015.73
2018-03-20T03:01:41.469Z,1015.78
2018-03-20T03:02:51.233Z,1015.75
2018-03-20T03:04:01.007Z,1015.8
2018-03-20T03:05:10.777Z,1015.78
2018-03-20T03:06:20.322Z,1015.79
2018-03-20T03:07:29.543Z,1015.84
2018-03-20T03:08:39.320Z,1015.88
2018-03-20T03:09:49.087Z,1015.9
2018-03-20T03:10:58.838Z,1015.95
2018-03-20T03:12:08.609Z,1015.97
2018-03-20T03:13:18.106Z,1015.93
2018-03-20T03:14:27.332Z,1015.99
2018-03-20T03:15:36.301Z,1015.97
2018-03-20T03:16:45.790Z,1016.06
2018-03-20T03:17:55.812Z,1016.06
2018-03-20T03:19:05.301Z,1016.05
2018-03-20T03:20:14.527Z,1016.1
2018-03-20T03:21:24.014Z,1016.13
2018-03-20T03:22:33.512Z,1016.12
2018-03-20T03:23:42.195Z,1016.09
2018-03-20T03:24:51.955Z,1016.15
2018-03-20T03:26:01.184Z,1016.14
2018-03-20T03:27:10.671Z,1016.15
2018-03-20T03:28:20.707Z,1016.13
2018-03-20T03:29:30.542Z,1016.19
2018-03-20T03:30:40.038Z,1016.13
2018-03-20T03:31:50.094Z,1016.2
2018-03-20T03:32:59.584Z,1016.19
2018-03-20T03:34:08.807Z,1016.22
2018-03-20T03:35:18.842Z,1016.21
2018-03-20T03:36:28.331Z,1016.24
2018-03-20T03:37:37.554Z,1016.25
2018-03-20T03:38:46.779Z,1016.29
2018-03-20T03:39:56.266Z,1016.25
2018-03-20T03:41:05.492Z,1016.32
2018-03-20T03:42:14.715Z,1016.31
2018-03-20T03:43:23.935Z,1016.3
2018-03-20T03:44:33.420Z,1016.26
2018-03-20T03:45:43.187Z,1016.34
2018-03-20T03:46:52.944Z,1016.31
2018-03-20T03:48:02.169Z,1016.31
2018-03-20T03:49:12.202Z,1016.31
2018-03-20T03:50:21.965Z,1016.39
2018-03-20T03:51:31.191Z,1016.39
2018-03-20T03:52:40.416Z,1016.42
2018-03-20T03:53:50.452Z,1016.4
2018-03-20T03:54:59.934Z,1016.41
2018-03-20T03:56:09.430Z,1016.41
2018-03-20T03:57:19.184Z,1016.5
2018-03-20T03:58:28.943Z,1016.47
2018-03-20T03:59:38.446Z,1016.56
2018-03-20T04:00:47.951Z,1016.57
2018-03-20T04:01:57.716Z,1016.52
2018-03-20T04:03:07.204Z,1016.58
2018-03-20T04:04:16.423Z,1016.65
2018-03-20T04:05:25.370Z,1016.62
2018-03-20T04:06:35.184Z,1016.7
2018-03-20T04:07:44.953Z,1016.69
2018-03-20T04:08:54.441Z,1016.74
2018-03-20T04:10:03.928Z,1016.7
2018-03-20T04:11:13.426Z,1016.73
2018-03-20T04:12:22.648Z,1016.78
2018-03-20T04:13:32.404Z,1016.8
2018-03-20T04:14:42.169Z,1016.8
2018-03-20T04:15:51.120Z,1016.85
2018-03-20T04:17:00.344Z,1016.84
2018-03-20T04:18:09.837Z,1016.89
2018-03-20T04:19:19.624Z,1016.9
2018-03-20T04:20:29.112Z,1016.89
2018-03-20T04:21:38.601Z,1016.93
2018-03-20T04:22:48.098Z,1016.92
2018-03-20T04:23:57.853Z,1017
2018-03-20T04:25:07.089Z,1016.98
2018-03-20T04:26:16.582Z,1017.01
2018-03-20T04:27:25.809Z,1017
2018-03-20T04:28:35.849Z,1017.05
2018-03-20T04:29:45.608Z,1017.06
2018-03-20T04:30:55.367Z,1017.1
2018-03-20T04:32:05.394Z,1017.07
2018-03-20T04:33:14.881Z,1017.12
2018-03-20T04:34:24.100Z,1017.1
2018-03-20T04:35:33.592Z,1017.14
2018-03-20T04:36:43.088Z,1017.17
2018-03-20T04:37:53.142Z,1017.2
2018-03-20T04:39:02.105Z,1017.16
2018-03-20T04:40:12.140Z,1017.15
2018-03-20T04:41:21.641Z,1017.19
2018-03-20T04:42:31.132Z,1017.21
2018-03-20T04:43:40.902Z,1017.25
2018-03-20T04:44:50.652Z,1017.25
2018-03-20T04:46:00.414Z,1017.29
2018-03-20T04:47:09.635Z,1017.26
2018-03-20T04:48:19.131Z,1017.31
2018-03-20T04:49:28.618Z,1017.28
2018-03-20T04:50:38.106Z,1017.26
2018-03-20T04:51:47.870Z,1017.35
2018-03-20T04:52:57.362Z,1017.33
2018-03-20T04:54:06.586Z,1017.38
2018-03-20T04:55:16.342Z,1017.37
2018-03-20T04:56:25.832Z,1017.41
2018-03-20T04:57:35.598Z,1017.42
2018-03-20T04:58:45.361Z,1017.45
2018-03-20T04:59:54.849Z,1017.51
2018-03-20T05:01:04.341Z,1017.5
2018-03-20T05:02:13.558Z,1017.54
2018-03-20T05:03:22.779Z,1017.61
2018-03-20T05:04:32.266Z,1017.56
2018-03-20T05:05:41.219Z,1017.58
2018-03-20T05:06:50.451Z,1017.6
2018-03-20T05:07:59.938Z,1017.6
2018-03-20T05:09:09.700Z,1017.59
2018-03-20T05:10:18.918Z,1017.63
2018-03-20T05:11:28.412Z,1017.62
2018-03-20T05:12:38.436Z,1017.68
2018-03-20T05:13:47.923Z,1017.72
2018-03-20T05:14:57.147Z,1017.72
2018-03-20T05:16:06.373Z,1017.78
2018-03-20T05:17:15.864Z,1017.81
2018-03-20T05:18:25.084Z,1017.87
2018-03-20T05:19:34.579Z,1017.87
2018-03-20T05:20:43.800Z,1017.86
2018-03-20T05:21:53.558Z,1017.87
2018-03-20T05:23:03.578Z,1017.83
2018-03-20T05:24:12.534Z,1017.92
2018-03-20T05:25:22.029Z,1017.86
2018-03-20T05:26:31.251Z,1017.92
2018-03-20T05:27:40.783Z,1017.94
2018-03-20T05:28:50.558Z,1018.02
2018-03-20T05:30:00.132Z,1018
2018-03-20T05:31:10.165Z,1018.02
2018-03-20T05:32:19.653Z,1018.05
2018-03-20T05:33:29.407Z,1018.08
2018-03-20T05:34:38.898Z,1018.09
2018-03-20T05:35:48.922Z,1018.13
2018-03-20T05:36:57.878Z,1018.14
2018-03-20T05:38:07.373Z,1018.16
2018-03-20T05:39:17.133Z,1018.15
2018-03-20T05:40:26.625Z,1018.23
2018-03-20T05:41:36.385Z,1018.24
2018-03-20T05:42:46.150Z,1018.27
2018-03-20T05:43:55.907Z,1018.31
2018-03-20T05:45:05.394Z,1018.36
2018-03-20T05:46:14.613Z,1018.33
2018-03-20T05:47:23.838Z,1018.38
2018-03-20T05:48:33.601Z,1018.42
2018-03-20T05:49:42.817Z,1018.42
2018-03-20T05:50:52.311Z,1018.43
2018-03-20T05:52:02.071Z,1018.45
2018-03-20T05:53:11.556Z,1018.41
2018-03-20T05:54:20.774Z,1018.48
2018-03-20T05:55:30.267Z,1018.49
2018-03-20T05:56:39.488Z,1018.49
2018-03-20T05:57:48.984Z,1018.52
2018-03-20T05:58:58.740Z,1018.55
2018-03-20T06:00:08.241Z,1018.55
2018-03-20T06:01:18.009Z,1018.62
2018-03-20T06:02:27.775Z,1018.57
2018-03-20T06:03:37.001Z,1018.56
2018-03-20T06:04:46.223Z,1018.6
2018-03-20T06:05:55.977Z,1018.64
2018-03-20T06:07:05.479Z,1018.66
2018-03-20T06:08:14.970Z,1018.68
2018-03-20T06:09:25.000Z,1018.7
2018-03-20T06:10:33.956Z,1018.77
2018-03-20T06:11:43.712Z,1018.77
2018-03-20T06:12:53.208Z,1018.85
2018-03-20T06:14:02.963Z,1018.85
2018-03-20T06:15:12.454Z,1018.9
2018-03-20T06:16:21.682Z,1018.95
2018-03-20T06:17:30.904Z,1018.93
2018-03-20T06:18:40.132Z,1018.93
2018-03-20T06:19:49.404Z,1018.92
2018-03-20T06:20:59.168Z,1018.93
2018-03-20T06:22:08.385Z,1018.92
2018-03-20T06:23:18.414Z,1019.01
2018-03-20T06:24:28.173Z,1019.03
2018-03-20T06:25:37.931Z,1019.05
2018-03-20T06:26:47.427Z,1019.1
2018-03-20T06:27:56.913Z,1019.11
2018-03-20T06:29:06.673Z,1019.05
2018-03-20T06:30:16.431Z,1019.13
2018-03-20T06:31:25.927Z,1019.23
2018-03-20T06:32:35.690Z,1019.2
2018-03-20T06:33:45.184Z,1019.22
2018-03-20T06:34:54.672Z,1019.27
2018-03-20T06:36:04.431Z,1019.33
2018-03-20T06:37:13.380Z,1019.3
2018-03-20T06:38:23.133Z,1019.36
2018-03-20T06:39:32.639Z,1019.38
2018-03-20T06:40:41.859Z,1019.41
2018-03-20T06:41:51.934Z,1019.43
2018-03-20T06:43:01.702Z,1019.49
2018-03-20T06:44:11.196Z,1019.48
2018-03-20T06:45:20.424Z,1019.52
2018-03-20T06:46:30.181Z,1019.51
2018-03-20T06:47:39.939Z,1019.54
2018-03-20T06:48:49.429Z,1019.55
2018-03-20T06:49:59.450Z,1019.6
2018-03-20T06:51:08.940Z,1019.56
2018-03-20T06:52:18.706Z,1019.55
2018-03-20T06:53:27.930Z,1019.61
2018-03-20T06:54:36.885Z,1019.64
2018-03-20T06:55:46.106Z,1019.61
2018-03-20T06:56:55.602Z,1019.63
2018-03-20T06:58:05.090Z,1019.67
2018-03-20T06:59:14.309Z,1019.66
2018-03-20T07:00:23.801Z,1019.74
2018-03-20T07:01:33.561Z,1019.73
2018-03-20T07:02:43.056Z,1019.74
2018-03-20T07:03:52.550Z,1019.79
2018-03-20T07:05:02.057Z,1019.81
2018-03-20T07:06:11.299Z,1019.8
2018-03-20T07:07:21.245Z,1019.82
2018-03-20T07:08:30.484Z,1019.83
2018-03-20T07:09:40.242Z,1019.93
2018-03-20T07:10:49.199Z,1019.88
2018-03-20T07:11:59.232Z,1019.86
2018-03-20T07:13:08.996Z,1019.97
2018-03-20T07:14:18.762Z,1019.96
2018-03-20T07:15:28.528Z,1020.03
2018-03-20T07:16:37.479Z,1020.05
2018-03-20T07:17:46.968Z,1020.05
2018-03-20T07:18:56.735Z,1020.05
2018-03-20T07:20:05.687Z,1020.07
2018-03-20T07:21:15.447Z,1020.16
2018-03-20T07:22:24.979Z,1020.13
2018-03-20T07:23:34.483Z,1020.17
2018-03-20T07:24:44.229Z,1020.18
2018-03-20T07:25:54.253Z,1020.22
2018-03-20T07:27:03.890Z,1020.21
2018-03-20T07:28:13.384Z,1020.24
2018-03-20T07:29:23.214Z,1020.27
2018-03-20T07:30:32.984Z,1020.27
2018-03-20T07:31:42.482Z,1020.29
2018-03-20T07:32:51.703Z,1020.3
2018-03-20T07:34:01.475Z,1020.22
2018-03-20T07:35:10.965Z,1020.29
2018-03-20T07:36:20.461Z,1020.34
2018-03-20T07:37:30.220Z,1020.35
2018-03-20T07:38:39.989Z,1020.44
2018-03-20T07:39:49.750Z,1020.46
2018-03-20T07:40:59.364Z,1020.5
2018-03-20T07:42:08.855Z,1020.47
2018-03-20T07:43:18.352Z,1020.6
2018-03-20T07:44:28.108Z,1020.65
2018-03-20T07:45:37.062Z,1020.64
2018-03-20T07:46:46.819Z,1020.66
2018-03-20T07:47:56.054Z,1020.66
2018-03-20T07:49:05.557Z,1020.63
2018-03-20T07:50:14.778Z,1020.77
2018-03-20T07:51:24.266Z,1020.81
2018-03-20T07:52:33.484Z,1020.84
2018-03-20T07:53:42.971Z,1020.84
2018-03-20T07:54:52.463Z,1020.86
2018-03-20T07:56:01.953Z,1020.88
2018-03-20T07:57:11.446Z,1020.88
2018-03-20T07:58:22.254Z,1021
2018-03-20T07:59:31.481Z,1020.89
2018-03-20T08:00:40.979Z,1020.95
2018-03-20T08:01:50.213Z,1020.98
2018-03-20T08:02:59.707Z,1020.99
2018-03-20T08:04:09.734Z,1020.96
2018-03-20T08:05:18.694Z,1020.96
2018-03-20T08:06:28.196Z,1020.94
2018-03-20T08:07:37.963Z,1021.05
2018-03-20T08:08:47.461Z,1021
2018-03-20T08:09:57.485Z,1020.98
2018-03-20T08:11:06.709Z,1021.06
2018-03-20T08:12:16.199Z,1021.12
2018-03-20T08:13:25.693Z,1021.1
2018-03-20T08:14:34.915Z,1021.1
2018-03-20T08:15:44.677Z,1021.09
2018-03-20T08:16:54.174Z,1021.09
2018-03-20T08:18:03.933Z,1021.13
2018-03-20T08:19:13.422Z,1021.14
2018-03-20T08:20:22.921Z,1021.16
2018-03-20T08:21:32.192Z,1021.23
2018-03-20T08:22:41.687Z,1021.15
2018-03-20T08:23:51.454Z,1021.15
2018-03-20T08:25:00.940Z,1021.19
2018-03-20T08:26:10.212Z,1021.19
2018-03-20T08:27:19.976Z,1021.23
2018-03-20T08:28:29.202Z,1021.26
2018-03-20T08:29:38.429Z,1021.31
2018-03-20T08:30:47.381Z,1021.34
2018-03-20T08:31:56.879Z,1021.34
2018-03-20T08:33:06.102Z,1021.31
2018-03-20T08:34:15.595Z,1021.34
2018-03-20T08:35:25.111Z,1021.41
2018-03-20T08:36:34.349Z,1021.4
2018-03-20T08:37:43.937Z,1021.5
2018-03-20T08:38:53.421Z,1021.44
2018-03-20T08:40:03.179Z,1021.47
2018-03-20T08:41:12.403Z,1021.53
2018-03-20T08:42:21.359Z,1021.52
2018-03-20T08:43:30.854Z,1021.48
2018-03-20T08:44:40.351Z,1021.58
2018-03-20T08:45:49.844Z,1021.64
2018-03-20T08:46:59.066Z,1021.6
2018-03-20T08:48:08.831Z,1021.67
2018-03-20T08:49:18.057Z,1021.72
2018-03-20T08:50:27.281Z,1021.73
2018-03-20T08:51:37.042Z,1021.72
2018-03-20T08:52:46.546Z,1021.7
2018-03-20T08:53:56.039Z,1021.77
2018-03-20T08:55:05.809Z,1021.83
2018-03-20T08:56:15.307Z,1021.81
2018-03-20T08:57:24.527Z,1021.86
2018-03-20T08:58:34.031Z,1021.77
2018-03-20T08:59:43.533Z,1021.86
2018-03-20T09:00:53.022Z,1021.84
2018-03-20T09:02:02.246Z,1022.02
2018-03-20T09:03:11.477Z,1021.94
2018-03-20T09:04:21.509Z,1021.92
2018-03-20T09:05:31.007Z,1021.91
2018-03-20T09:06:40.510Z,1021.91
2018-03-20T09:07:49.466Z,1021.95
2018-03-20T09:08:58.960Z,1021.93
2018-03-20T09:10:08.458Z,1021.96
2018-03-20T09:11:17.950Z,1021.98
2018-03-20T09:12:27.518Z,1022.04
2018-03-20T09:13:37.355Z,1022.04
2018-03-20T09:14:46.853Z,1022.09
2018-03-20T09:15:56.352Z,1022.15
2018-03-20T09:17:05.578Z,1022.09
2018-03-20T09:18:15.338Z,1022.14
2018-03-20T09:19:24.827Z,1022.11
2018-03-20T09:20:34.065Z,1022.1
